sensor_id;sensor_type;location;lat;lon;timestamp;P1;durP1;ratioP1;P2;durP2;ratioP2
27402;SDS011;14862;49.494;8.530;2023-11-19T00:00:04;4.03;;;2.55;;
27402;SDS011;14862;49.494;8.530;2023-11-19T00:02:31;3.58;;;2.88;;
27402;SDS011;14862;49.494;8.530;2023-11-19T00:04:56;4.30;;;3.00;;
27402;SDS011;14862;49.494;8.530;2023-11-19T00:07:22;3.97;;;3.30;;
27402;SDS011;14862;49.494;8.530;2023-11-19T00:09:47;5.28;;;3.35;;
27402;SDS011;14862;49.494;8.530;2023-11-19T00:12:12;6.28;;;3.40;;
27402;SDS011;14862;49.494;8.530;2023-11-19T00:14:38;5.88;;;3.13;;
27402;SDS011;14862;49.494;8.530;2023-11-19T00:17:03;4.00;;;3.33;;
27402;SDS011;14862;49.494;8.530;2023-11-19T00:19:29;5.63;;;3.35;;
27402;SDS011;14862;49.494;8.530;2023-11-19T00:21:54;4.85;;;3.35;;
27402;SDS011;14862;49.494;8.530;2023-11-19T00:24:19;4.13;;;2.88;;
27402;SDS011;14862;49.494;8.530;2023-11-19T00:26:45;3.38;;;2.55;;
27402;SDS011;14862;49.494;8.530;2023-11-19T00:29:10;3.03;;;2.72;;
27402;SDS011;14862;49.494;8.530;2023-11-19T00:31:36;4.90;;;3.28;;
27402;SDS011;14862;49.494;8.530;2023-11-19T00:34:01;3.40;;;2.53;;
27402;SDS011;14862;49.494;8.530;2023-11-19T00:36:27;2.97;;;2.70;;
27402;SDS011;14862;49.494;8.530;2023-11-19T00:38:53;3.90;;;2.85;;
27402;SDS011;14862;49.494;8.530;2023-11-19T00:41:18;2.92;;;2.40;;
27402;SDS011;14862;49.494;8.530;2023-11-19T00:43:44;3.10;;;2.38;;
27402;SDS011;14862;49.494;8.530;2023-11-19T00:46:09;3.75;;;2.40;;
27402;SDS011;14862;49.494;8.530;2023-11-19T00:48:36;2.63;;;2.28;;
27402;SDS011;14862;49.494;8.530;2023-11-19T00:51:01;4.13;;;2.45;;
27402;SDS011;14862;49.494;8.530;2023-11-19T00:53:26;4.95;;;2.30;;
27402;SDS011;14862;49.494;8.530;2023-11-19T00:55:51;4.20;;;2.20;;
27402;SDS011;14862;49.494;8.530;2023-11-19T00:58:16;3.13;;;2.03;;
27402;SDS011;14862;49.494;8.530;2023-11-19T01:00:43;2.40;;;1.67;;
27402;SDS011;14862;49.494;8.530;2023-11-19T01:03:08;2.10;;;1.83;;
27402;SDS011;14862;49.494;8.530;2023-11-19T01:05:33;1.88;;;1.67;;
27402;SDS011;14862;49.494;8.530;2023-11-19T01:07:58;2.08;;;1.27;;
27402;SDS011;14862;49.494;8.530;2023-11-19T01:10:24;1.38;;;1.27;;
27402;SDS011;14862;49.494;8.530;2023-11-19T01:12:50;2.33;;;1.55;;
27402;SDS011;14862;49.494;8.530;2023-11-19T01:15:16;1.60;;;1.50;;
27402;SDS011;14862;49.494;8.530;2023-11-19T01:17:43;2.50;;;1.38;;
27402;SDS011;14862;49.494;8.530;2023-11-19T01:20:09;1.10;;;1.00;;
27402;SDS011;14862;49.494;8.530;2023-11-19T01:22:37;1.50;;;1.33;;
27402;SDS011;14862;49.494;8.530;2023-11-19T01:25:02;2.88;;;1.30;;
27402;SDS011;14862;49.494;8.530;2023-11-19T01:27:27;2.88;;;1.30;;
27402;SDS011;14862;49.494;8.530;2023-11-19T01:29:53;2.40;;;1.33;;
27402;SDS011;14862;49.494;8.530;2023-11-19T01:32:18;2.05;;;1.30;;
27402;SDS011;14862;49.494;8.530;2023-11-19T01:34:43;1.38;;;1.27;;
27402;SDS011;14862;49.494;8.530;2023-11-19T01:37:09;2.17;;;1.33;;
27402;SDS011;14862;49.494;8.530;2023-11-19T01:39:35;1.83;;;1.40;;
27402;SDS011;14862;49.494;8.530;2023-11-19T01:42:00;1.30;;;1.20;;
27402;SDS011;14862;49.494;8.530;2023-11-19T01:44:25;3.77;;;1.87;;
27402;SDS011;14862;49.494;8.530;2023-11-19T01:46:51;1.50;;;1.38;;
27402;SDS011;14862;49.494;8.530;2023-11-19T01:49:17;2.45;;;1.50;;
27402;SDS011;14862;49.494;8.530;2023-11-19T01:51:43;3.38;;;1.27;;
27402;SDS011;14862;49.494;8.530;2023-11-19T01:54:08;1.65;;;1.38;;
27402;SDS011;14862;49.494;8.530;2023-11-19T01:56:34;1.58;;;1.13;;
27402;SDS011;14862;49.494;8.530;2023-11-19T01:58:59;1.55;;;1.20;;
27402;SDS011;14862;49.494;8.530;2023-11-19T02:01:25;1.75;;;1.55;;
27402;SDS011;14862;49.494;8.530;2023-11-19T02:03:51;1.30;;;1.20;;
27402;SDS011;14862;49.494;8.530;2023-11-19T02:06:16;1.95;;;1.40;;
27402;SDS011;14862;49.494;8.530;2023-11-19T02:08:42;1.67;;;1.50;;
27402;SDS011;14862;49.494;8.530;2023-11-19T02:11:08;2.08;;;1.88;;
27402;SDS011;14862;49.494;8.530;2023-11-19T02:13:33;2.90;;;1.83;;
27402;SDS011;14862;49.494;8.530;2023-11-19T02:16:01;3.58;;;1.60;;
27402;SDS011;14862;49.494;8.530;2023-11-19T02:18:27;2.15;;;1.42;;
27402;SDS011;14862;49.494;8.530;2023-11-19T02:20:53;1.23;;;1.13;;
27402;SDS011;14862;49.494;8.530;2023-11-19T02:23:19;1.30;;;1.20;;
27402;SDS011;14862;49.494;8.530;2023-11-19T02:25:47;1.10;;;0.98;;
27402;SDS011;14862;49.494;8.530;2023-11-19T02:28:14;1.30;;;1.20;;
27402;SDS011;14862;49.494;8.530;2023-11-19T02:30:40;1.80;;;1.45;;
27402;SDS011;14862;49.494;8.530;2023-11-19T02:33:06;1.38;;;1.25;;
27402;SDS011;14862;49.494;8.530;2023-11-19T02:35:31;1.88;;;1.27;;
27402;SDS011;14862;49.494;8.530;2023-11-19T02:37:57;1.13;;;1.02;;
27402;SDS011;14862;49.494;8.530;2023-11-19T02:40:24;1.30;;;1.20;;
27402;SDS011;14862;49.494;8.530;2023-11-19T02:42:49;1.13;;;1.02;;
27402;SDS011;14862;49.494;8.530;2023-11-19T02:45:15;1.58;;;1.17;;
27402;SDS011;14862;49.494;8.530;2023-11-19T02:47:40;1.65;;;1.30;;
27402;SDS011;14862;49.494;8.530;2023-11-19T02:50:07;2.38;;;1.40;;
27402;SDS011;14862;49.494;8.530;2023-11-19T02:52:38;1.90;;;1.30;;
27402;SDS011;14862;49.494;8.530;2023-11-19T02:55:04;1.38;;;1.27;;
27402;SDS011;14862;49.494;8.530;2023-11-19T02:57:34;2.65;;;1.27;;
27402;SDS011;14862;49.494;8.530;2023-11-19T02:59:59;1.57;;;1.23;;
27402;SDS011;14862;49.494;8.530;2023-11-19T03:02:24;1.25;;;1.10;;
27402;SDS011;14862;49.494;8.530;2023-11-19T03:07:24;2.28;;;0.80;;
27402;SDS011;14862;49.494;8.530;2023-11-19T03:09:49;1.75;;;1.10;;
27402;SDS011;14862;49.494;8.530;2023-11-19T03:12:14;2.97;;;1.20;;
27402;SDS011;14862;49.494;8.530;2023-11-19T03:14:40;1.02;;;0.95;;
27402;SDS011;14862;49.494;8.530;2023-11-19T03:17:05;1.10;;;1.00;;
27402;SDS011;14862;49.494;8.530;2023-11-19T03:19:30;1.77;;;1.20;;
27402;SDS011;14862;49.494;8.530;2023-11-19T03:21:55;1.08;;;0.98;;
27402;SDS011;14862;49.494;8.530;2023-11-19T03:24:21;0.98;;;0.98;;
27402;SDS011;14862;49.494;8.530;2023-11-19T03:26:49;1.10;;;1.00;;
27402;SDS011;14862;49.494;8.530;2023-11-19T03:29:18;1.20;;;1.10;;
27402;SDS011;14862;49.494;8.530;2023-11-19T03:31:43;1.23;;;1.10;;
27402;SDS011;14862;49.494;8.530;2023-11-19T03:34:09;0.60;;;0.60;;
27402;SDS011;14862;49.494;8.530;2023-11-19T03:36:34;0.70;;;0.70;;
27402;SDS011;14862;49.494;8.530;2023-11-19T03:39:00;1.08;;;1.00;;
27402;SDS011;14862;49.494;8.530;2023-11-19T03:41:25;0.93;;;0.85;;
27402;SDS011;14862;49.494;8.530;2023-11-19T03:43:50;1.17;;;0.97;;
27402;SDS011;14862;49.494;8.530;2023-11-19T03:46:18;2.63;;;1.20;;
27402;SDS011;14862;49.494;8.530;2023-11-19T03:48:44;1.10;;;1.00;;
27402;SDS011;14862;49.494;8.530;2023-11-19T03:51:09;0.88;;;0.88;;
27402;SDS011;14862;49.494;8.530;2023-11-19T03:53:35;1.30;;;1.17;;
27402;SDS011;14862;49.494;8.530;2023-11-19T03:56:00;1.02;;;0.95;;
27402;SDS011;14862;49.494;8.530;2023-11-19T03:58:25;1.10;;;1.00;;
27402;SDS011;14862;49.494;8.530;2023-11-19T04:00:51;1.20;;;1.00;;
27402;SDS011;14862;49.494;8.530;2023-11-19T04:03:16;0.95;;;0.90;;
27402;SDS011;14862;49.494;8.530;2023-11-19T04:05:41;2.60;;;1.23;;
27402;SDS011;14862;49.494;8.530;2023-11-19T04:08:06;1.40;;;1.30;;
27402;SDS011;14862;49.494;8.530;2023-11-19T04:10:31;1.05;;;1.05;;
27402;SDS011;14862;49.494;8.530;2023-11-19T04:12:57;1.52;;;1.30;;
27402;SDS011;14862;49.494;8.530;2023-11-19T04:15:22;1.73;;;1.63;;
27402;SDS011;14862;49.494;8.530;2023-11-19T04:17:47;1.50;;;1.40;;
27402;SDS011;14862;49.494;8.530;2023-11-19T04:20:13;1.50;;;1.10;;
27402;SDS011;14862;49.494;8.530;2023-11-19T04:22:39;1.30;;;1.20;;
27402;SDS011;14862;49.494;8.530;2023-11-19T04:25:04;2.65;;;1.60;;
27402;SDS011;14862;49.494;8.530;2023-11-19T04:27:29;1.20;;;1.10;;
27402;SDS011;14862;49.494;8.530;2023-11-19T04:29:55;2.00;;;1.30;;
27402;SDS011;14862;49.494;8.530;2023-11-19T04:32:20;1.20;;;1.10;;
27402;SDS011;14862;49.494;8.530;2023-11-19T04:34:46;1.13;;;1.13;;
27402;SDS011;14862;49.494;8.530;2023-11-19T04:37:11;1.20;;;1.10;;
27402;SDS011;14862;49.494;8.530;2023-11-19T04:39:36;1.20;;;1.10;;
27402;SDS011;14862;49.494;8.530;2023-11-19T04:42:02;1.20;;;1.10;;
27402;SDS011;14862;49.494;8.530;2023-11-19T04:44:27;1.20;;;1.05;;
27402;SDS011;14862;49.494;8.530;2023-11-19T04:46:54;1.58;;;1.45;;
27402;SDS011;14862;49.494;8.530;2023-11-19T04:49:19;3.10;;;1.50;;
27402;SDS011;14862;49.494;8.530;2023-11-19T04:51:45;1.88;;;1.30;;
27402;SDS011;14862;49.494;8.530;2023-11-19T04:54:12;1.90;;;1.40;;
27402;SDS011;14862;49.494;8.530;2023-11-19T04:56:37;1.35;;;1.25;;
27402;SDS011;14862;49.494;8.530;2023-11-19T04:59:03;1.55;;;1.42;;
27402;SDS011;14862;49.494;8.530;2023-11-19T05:01:28;1.50;;;1.40;;
27402;SDS011;14862;49.494;8.530;2023-11-19T05:03:53;2.15;;;1.65;;
27402;SDS011;14862;49.494;8.530;2023-11-19T05:06:18;1.83;;;1.60;;
27402;SDS011;14862;49.494;8.530;2023-11-19T05:08:44;1.73;;;1.38;;
27402;SDS011;14862;49.494;8.530;2023-11-19T05:11:09;1.40;;;1.30;;
27402;SDS011;14862;49.494;8.530;2023-11-19T05:13:37;1.35;;;1.15;;
27402;SDS011;14862;49.494;8.530;2023-11-19T05:16:02;1.77;;;1.20;;
27402;SDS011;14862;49.494;8.530;2023-11-19T05:18:27;2.47;;;1.40;;
27402;SDS011;14862;49.494;8.530;2023-11-19T05:20:52;2.85;;;1.50;;
27402;SDS011;14862;49.494;8.530;2023-11-19T05:23:17;3.10;;;1.50;;
27402;SDS011;14862;49.494;8.530;2023-11-19T05:25:43;1.93;;;1.20;;
27402;SDS011;14862;49.494;8.530;2023-11-19T05:28:08;2.00;;;1.27;;
27402;SDS011;14862;49.494;8.530;2023-11-19T05:30:33;4.40;;;1.53;;
27402;SDS011;14862;49.494;8.530;2023-11-19T05:32:58;1.33;;;1.10;;
27402;SDS011;14862;49.494;8.530;2023-11-19T05:35:23;3.17;;;1.40;;
27402;SDS011;14862;49.494;8.530;2023-11-19T05:37:49;2.07;;;1.70;;
27402;SDS011;14862;49.494;8.530;2023-11-19T05:40:15;1.55;;;1.45;;
27402;SDS011;14862;49.494;8.530;2023-11-19T05:42:40;4.20;;;2.13;;
27402;SDS011;14862;49.494;8.530;2023-11-19T05:45:06;1.88;;;1.65;;
27402;SDS011;14862;49.494;8.530;2023-11-19T05:47:32;2.10;;;1.80;;
27402;SDS011;14862;49.494;8.530;2023-11-19T05:49:58;2.38;;;1.70;;
27402;SDS011;14862;49.494;8.530;2023-11-19T05:52:23;2.95;;;1.80;;
27402;SDS011;14862;49.494;8.530;2023-11-19T05:54:48;1.63;;;1.53;;
27402;SDS011;14862;49.494;8.530;2023-11-19T05:57:16;2.38;;;1.30;;
27402;SDS011;14862;49.494;8.530;2023-11-19T05:59:45;3.33;;;1.75;;
27402;SDS011;14862;49.494;8.530;2023-11-19T06:02:10;2.10;;;1.55;;
27402;SDS011;14862;49.494;8.530;2023-11-19T06:04:35;2.35;;;1.95;;
27402;SDS011;14862;49.494;8.530;2023-11-19T06:07:01;2.00;;;1.80;;
27402;SDS011;14862;49.494;8.530;2023-11-19T06:09:26;2.83;;;2.13;;
27402;SDS011;14862;49.494;8.530;2023-11-19T06:11:51;4.20;;;1.97;;
27402;SDS011;14862;49.494;8.530;2023-11-19T06:14:17;2.90;;;2.10;;
27402;SDS011;14862;49.494;8.530;2023-11-19T06:16:42;2.75;;;2.08;;
27402;SDS011;14862;49.494;8.530;2023-11-19T06:19:07;3.72;;;2.38;;
27402;SDS011;14862;49.494;8.530;2023-11-19T06:21:33;2.22;;;1.80;;
27402;SDS011;14862;49.494;8.530;2023-11-19T06:23:58;3.08;;;1.67;;
27402;SDS011;14862;49.494;8.530;2023-11-19T06:26:24;2.80;;;2.15;;
27402;SDS011;14862;49.494;8.530;2023-11-19T06:28:49;2.20;;;1.70;;
27402;SDS011;14862;49.494;8.530;2023-11-19T06:31:14;1.87;;;1.70;;
27402;SDS011;14862;49.494;8.530;2023-11-19T06:33:41;2.05;;;1.60;;
27402;SDS011;14862;49.494;8.530;2023-11-19T06:36:06;3.97;;;2.00;;
27402;SDS011;14862;49.494;8.530;2023-11-19T06:38:32;2.25;;;1.60;;
27402;SDS011;14862;49.494;8.530;2023-11-19T06:40:58;2.70;;;2.10;;
27402;SDS011;14862;49.494;8.530;2023-11-19T06:43:23;2.35;;;1.85;;
27402;SDS011;14862;49.494;8.530;2023-11-19T06:45:48;3.10;;;1.63;;
27402;SDS011;14862;49.494;8.530;2023-11-19T06:48:13;2.73;;;1.73;;
27402;SDS011;14862;49.494;8.530;2023-11-19T06:50:39;2.73;;;1.90;;
27402;SDS011;14862;49.494;8.530;2023-11-19T06:53:04;3.72;;;1.58;;
27402;SDS011;14862;49.494;8.530;2023-11-19T06:55:31;3.58;;;1.52;;
27402;SDS011;14862;49.494;8.530;2023-11-19T06:57:57;2.38;;;1.40;;
27402;SDS011;14862;49.494;8.530;2023-11-19T07:00:22;1.65;;;1.30;;
27402;SDS011;14862;49.494;8.530;2023-11-19T07:02:47;2.47;;;1.38;;
27402;SDS011;14862;49.494;8.530;2023-11-19T07:05:12;1.73;;;1.35;;
27402;SDS011;14862;49.494;8.530;2023-11-19T07:07:38;1.92;;;1.40;;
27402;SDS011;14862;49.494;8.530;2023-11-19T07:10:04;2.95;;;1.15;;
27402;SDS011;14862;49.494;8.530;2023-11-19T07:12:31;1.73;;;1.25;;
27402;SDS011;14862;49.494;8.530;2023-11-19T07:14:57;2.83;;;1.33;;
27402;SDS011;14862;49.494;8.530;2023-11-19T07:17:22;1.95;;;1.20;;
27402;SDS011;14862;49.494;8.530;2023-11-19T07:19:49;2.22;;;1.10;;
27402;SDS011;14862;49.494;8.530;2023-11-19T07:22:15;0.88;;;0.88;;
27402;SDS011;14862;49.494;8.530;2023-11-19T07:24:40;1.50;;;1.35;;
27402;SDS011;14862;49.494;8.530;2023-11-19T07:27:06;1.77;;;1.13;;
27402;SDS011;14862;49.494;8.530;2023-11-19T07:29:31;4.82;;;1.30;;
27402;SDS011;14862;49.494;8.530;2023-11-19T07:31:57;5.72;;;1.88;;
27402;SDS011;14862;49.494;8.530;2023-11-19T07:34:22;2.65;;;1.90;;
27402;SDS011;14862;49.494;8.530;2023-11-19T07:36:47;2.70;;;1.40;;
27402;SDS011;14862;49.494;8.530;2023-11-19T07:39:12;1.88;;;1.38;;
27402;SDS011;14862;49.494;8.530;2023-11-19T07:41:38;2.80;;;1.20;;
27402;SDS011;14862;49.494;8.530;2023-11-19T07:44:03;1.60;;;1.20;;
27402;SDS011;14862;49.494;8.530;2023-11-19T07:46:28;2.25;;;1.65;;
27402;SDS011;14862;49.494;8.530;2023-11-19T07:48:54;3.42;;;1.40;;
27402;SDS011;14862;49.494;8.530;2023-11-19T07:51:19;2.55;;;1.40;;
27402;SDS011;14862;49.494;8.530;2023-11-19T07:53:44;5.43;;;1.35;;
27402;SDS011;14862;49.494;8.530;2023-11-19T07:56:09;1.88;;;1.20;;
27402;SDS011;14862;49.494;8.530;2023-11-19T07:58:35;2.05;;;1.65;;
27402;SDS011;14862;49.494;8.530;2023-11-19T08:01:01;6.40;;;2.95;;
27402;SDS011;14862;49.494;8.530;2023-11-19T08:03:27;3.38;;;2.30;;
27402;SDS011;14862;49.494;8.530;2023-11-19T08:05:55;4.28;;;1.98;;
27402;SDS011;14862;49.494;8.530;2023-11-19T08:08:21;1.98;;;1.42;;
27402;SDS011;14862;49.494;8.530;2023-11-19T08:10:46;3.25;;;1.48;;
27402;SDS011;14862;49.494;8.530;2023-11-19T08:13:12;1.75;;;1.13;;
27402;SDS011;14862;49.494;8.530;2023-11-19T08:15:38;2.75;;;1.50;;
27402;SDS011;14862;49.494;8.530;2023-11-19T08:18:03;1.30;;;1.20;;
27402;SDS011;14862;49.494;8.530;2023-11-19T08:20:28;2.55;;;1.15;;
27402;SDS011;14862;49.494;8.530;2023-11-19T08:22:53;2.25;;;1.13;;
27402;SDS011;14862;49.494;8.530;2023-11-19T08:25:19;2.50;;;1.30;;
27402;SDS011;14862;49.494;8.530;2023-11-19T08:27:44;1.95;;;1.40;;
27402;SDS011;14862;49.494;8.530;2023-11-19T08:30:09;3.13;;;1.40;;
27402;SDS011;14862;49.494;8.530;2023-11-19T08:32:35;3.60;;;1.42;;
27402;SDS011;14862;49.494;8.530;2023-11-19T08:35:01;5.10;;;3.42;;
27402;SDS011;14862;49.494;8.530;2023-11-19T08:37:26;4.10;;;2.40;;
27402;SDS011;14862;49.494;8.530;2023-11-19T08:39:52;5.10;;;3.63;;
27402;SDS011;14862;49.494;8.530;2023-11-19T08:42:17;7.88;;;3.30;;
27402;SDS011;14862;49.494;8.530;2023-11-19T08:44:43;6.68;;;4.45;;
27402;SDS011;14862;49.494;8.530;2023-11-19T08:47:12;7.57;;;3.80;;
27402;SDS011;14862;49.494;8.530;2023-11-19T08:49:37;3.75;;;2.58;;
27402;SDS011;14862;49.494;8.530;2023-11-19T08:52:04;4.75;;;2.90;;
27402;SDS011;14862;49.494;8.530;2023-11-19T08:54:29;1.73;;;1.50;;
27402;SDS011;14862;49.494;8.530;2023-11-19T08:56:54;2.20;;;1.60;;
27402;SDS011;14862;49.494;8.530;2023-11-19T08:59:19;1.30;;;1.10;;
27402;SDS011;14862;49.494;8.530;2023-11-19T09:01:45;1.17;;;1.08;;
27402;SDS011;14862;49.494;8.530;2023-11-19T09:04:10;2.70;;;1.80;;
27402;SDS011;14862;49.494;8.530;2023-11-19T09:06:35;4.38;;;2.10;;
27402;SDS011;14862;49.494;8.530;2023-11-19T09:09:01;4.07;;;2.45;;
27402;SDS011;14862;49.494;8.530;2023-11-19T09:11:28;3.20;;;1.55;;
27402;SDS011;14862;49.494;8.530;2023-11-19T09:13:53;3.28;;;1.40;;
27402;SDS011;14862;49.494;8.530;2023-11-19T09:16:18;2.90;;;1.63;;
27402;SDS011;14862;49.494;8.530;2023-11-19T09:18:44;2.22;;;1.30;;
27402;SDS011;14862;49.494;8.530;2023-11-19T09:21:10;2.55;;;1.60;;
27402;SDS011;14862;49.494;8.530;2023-11-19T09:23:35;1.40;;;1.30;;
27402;SDS011;14862;49.494;8.530;2023-11-19T09:26:04;3.08;;;2.25;;
27402;SDS011;14862;49.494;8.530;2023-11-19T09:28:30;1.98;;;1.77;;
27402;SDS011;14862;49.494;8.530;2023-11-19T09:30:55;3.13;;;1.70;;
27402;SDS011;14862;49.494;8.530;2023-11-19T09:33:21;6.93;;;1.20;;
27402;SDS011;14862;49.494;8.530;2023-11-19T09:35:46;4.80;;;1.73;;
27402;SDS011;14862;49.494;8.530;2023-11-19T09:38:11;3.70;;;1.50;;
27402;SDS011;14862;49.494;8.530;2023-11-19T09:40:37;1.33;;;1.20;;
27402;SDS011;14862;49.494;8.530;2023-11-19T09:43:03;2.95;;;1.38;;
27402;SDS011;14862;49.494;8.530;2023-11-19T09:45:29;3.67;;;1.88;;
27402;SDS011;14862;49.494;8.530;2023-11-19T09:47:57;16.98;;;2.05;;
27402;SDS011;14862;49.494;8.530;2023-11-19T09:50:24;3.67;;;1.58;;
27402;SDS011;14862;49.494;8.530;2023-11-19T09:52:49;3.95;;;1.30;;
27402;SDS011;14862;49.494;8.530;2023-11-19T09:55:15;3.30;;;1.67;;
27402;SDS011;14862;49.494;8.530;2023-11-19T09:57:41;3.88;;;1.65;;
27402;SDS011;14862;49.494;8.530;2023-11-19T10:00:07;2.30;;;1.52;;
27402;SDS011;14862;49.494;8.530;2023-11-19T10:02:33;1.45;;;0.82;;
27402;SDS011;14862;49.494;8.530;2023-11-19T10:04:59;1.88;;;1.30;;
27402;SDS011;14862;49.494;8.530;2023-11-19T10:07:24;2.47;;;1.58;;
27402;SDS011;14862;49.494;8.530;2023-11-19T10:09:50;3.83;;;1.50;;
27402;SDS011;14862;49.494;8.530;2023-11-19T10:12:15;3.58;;;1.30;;
27402;SDS011;14862;49.494;8.530;2023-11-19T10:14:41;1.77;;;1.40;;
27402;SDS011;14862;49.494;8.530;2023-11-19T10:17:07;1.55;;;1.20;;
27402;SDS011;14862;49.494;8.530;2023-11-19T10:19:33;3.03;;;1.30;;
27402;SDS011;14862;49.494;8.530;2023-11-19T10:22:02;4.00;;;1.52;;
27402;SDS011;14862;49.494;8.530;2023-11-19T10:24:34;2.50;;;1.35;;
27402;SDS011;14862;49.494;8.530;2023-11-19T10:26:59;2.08;;;1.23;;
27402;SDS011;14862;49.494;8.530;2023-11-19T10:29:25;5.13;;;1.60;;
27402;SDS011;14862;49.494;8.530;2023-11-19T10:31:56;2.75;;;1.88;;
27402;SDS011;14862;49.494;8.530;2023-11-19T10:34:25;6.60;;;1.58;;
27402;SDS011;14862;49.494;8.530;2023-11-19T10:36:51;4.63;;;1.35;;
27402;SDS011;14862;49.494;8.530;2023-11-19T10:39:16;2.20;;;1.23;;
27402;SDS011;14862;49.494;8.530;2023-11-19T10:41:42;1.35;;;0.90;;
27402;SDS011;14862;49.494;8.530;2023-11-19T10:44:08;5.60;;;1.80;;
27402;SDS011;14862;49.494;8.530;2023-11-19T10:46:40;6.60;;;2.35;;
27402;SDS011;14862;49.494;8.530;2023-11-19T10:49:06;3.83;;;1.30;;
27402;SDS011;14862;49.494;8.530;2023-11-19T10:51:31;4.28;;;1.40;;
27402;SDS011;14862;49.494;8.530;2023-11-19T10:53:57;5.40;;;1.55;;
27402;SDS011;14862;49.494;8.530;2023-11-19T10:56:26;2.10;;;1.50;;
27402;SDS011;14862;49.494;8.530;2023-11-19T10:58:55;4.38;;;1.50;;
27402;SDS011;14862;49.494;8.530;2023-11-19T11:01:24;2.75;;;1.27;;
27402;SDS011;14862;49.494;8.530;2023-11-19T11:03:51;4.55;;;1.30;;
27402;SDS011;14862;49.494;8.530;2023-11-19T11:06:16;2.55;;;1.10;;
27402;SDS011;14862;49.494;8.530;2023-11-19T11:08:42;4.43;;;1.30;;
27402;SDS011;14862;49.494;8.530;2023-11-19T11:11:07;7.60;;;1.65;;
27402;SDS011;14862;49.494;8.530;2023-11-19T11:13:33;3.63;;;1.48;;
27402;SDS011;14862;49.494;8.530;2023-11-19T11:15:59;3.38;;;1.52;;
27402;SDS011;14862;49.494;8.530;2023-11-19T11:18:24;3.03;;;1.30;;
27402;SDS011;14862;49.494;8.530;2023-11-19T11:20:57;4.97;;;1.40;;
27402;SDS011;14862;49.494;8.530;2023-11-19T11:23:40;2.08;;;1.20;;
27402;SDS011;14862;49.494;8.530;2023-11-19T11:36:31;3.58;;;1.60;;
27402;SDS011;14862;49.494;8.530;2023-11-19T11:39:00;2.78;;;1.80;;
27402;SDS011;14862;49.494;8.530;2023-11-19T11:41:26;4.05;;;1.70;;
27402;SDS011;14862;49.494;8.530;2023-11-19T11:43:52;5.80;;;1.70;;
27402;SDS011;14862;49.494;8.530;2023-11-19T12:02:03;3.25;;;1.45;;
27402;SDS011;14862;49.494;8.530;2023-11-19T12:04:28;2.63;;;1.10;;
27402;SDS011;14862;49.494;8.530;2023-11-19T12:07:06;3.28;;;1.55;;
27402;SDS011;14862;49.494;8.530;2023-11-19T12:09:32;3.13;;;1.20;;
27402;SDS011;14862;49.494;8.530;2023-11-19T12:12:18;3.10;;;1.10;;
27402;SDS011;14862;49.494;8.530;2023-11-19T12:20:02;7.80;;;1.52;;
27402;SDS011;14862;49.494;8.530;2023-11-19T12:22:28;3.88;;;1.30;;
27402;SDS011;14862;49.494;8.530;2023-11-19T12:24:53;3.75;;;2.13;;
27402;SDS011;14862;49.494;8.530;2023-11-19T12:27:19;6.15;;;2.53;;
27402;SDS011;14862;49.494;8.530;2023-11-19T12:29:47;5.68;;;1.67;;
27402;SDS011;14862;49.494;8.530;2023-11-19T12:32:12;9.30;;;1.90;;
27402;SDS011;14862;49.494;8.530;2023-11-19T12:34:38;7.68;;;2.45;;
27402;SDS011;14862;49.494;8.530;2023-11-19T12:37:03;3.35;;;1.90;;
27402;SDS011;14862;49.494;8.530;2023-11-19T12:39:32;2.88;;;1.23;;
27402;SDS011;14862;49.494;8.530;2023-11-19T12:41:57;3.78;;;1.80;;
27402;SDS011;14862;49.494;8.530;2023-11-19T12:44:24;9.02;;;3.90;;
27402;SDS011;14862;49.494;8.530;2023-11-19T12:49:25;3.13;;;1.85;;
27402;SDS011;14862;49.494;8.530;2023-11-19T12:51:50;2.92;;;1.40;;
27402;SDS011;14862;49.494;8.530;2023-11-19T12:54:15;8.47;;;1.60;;
27402;SDS011;14862;49.494;8.530;2023-11-19T12:56:51;3.92;;;1.83;;
27402;SDS011;14862;49.494;8.530;2023-11-19T12:59:16;3.85;;;1.50;;
27402;SDS011;14862;49.494;8.530;2023-11-19T13:01:42;11.30;;;4.72;;
27402;SDS011;14862;49.494;8.530;2023-11-19T13:04:18;6.07;;;2.50;;
27402;SDS011;14862;49.494;8.530;2023-11-19T13:06:44;4.32;;;1.85;;
27402;SDS011;14862;49.494;8.530;2023-11-19T13:09:12;7.57;;;2.05;;
27402;SDS011;14862;49.494;8.530;2023-11-19T13:11:46;3.40;;;1.48;;
27402;SDS011;14862;49.494;8.530;2023-11-19T13:14:11;6.10;;;1.40;;
27402;SDS011;14862;49.494;8.530;2023-11-19T13:16:37;7.00;;;1.58;;
27402;SDS011;14862;49.494;8.530;2023-11-19T13:19:03;4.68;;;1.50;;
27402;SDS011;14862;49.494;8.530;2023-11-19T13:21:29;3.33;;;1.60;;
27402;SDS011;14862;49.494;8.530;2023-11-19T13:23:57;5.45;;;1.60;;
27402;SDS011;14862;49.494;8.530;2023-11-19T13:26:22;4.57;;;1.75;;
27402;SDS011;14862;49.494;8.530;2023-11-19T13:28:48;5.75;;;1.77;;
27402;SDS011;14862;49.494;8.530;2023-11-19T13:31:13;5.60;;;2.70;;
27402;SDS011;14862;49.494;8.530;2023-11-19T13:33:39;4.43;;;2.38;;
27402;SDS011;14862;49.494;8.530;2023-11-19T13:36:04;3.40;;;2.00;;
27402;SDS011;14862;49.494;8.530;2023-11-19T13:38:36;7.88;;;2.88;;
27402;SDS011;14862;49.494;8.530;2023-11-19T13:41:04;4.75;;;2.20;;
27402;SDS011;14862;49.494;8.530;2023-11-19T13:43:29;5.93;;;2.38;;
27402;SDS011;14862;49.494;8.530;2023-11-19T13:45:55;4.25;;;2.05;;
27402;SDS011;14862;49.494;8.530;2023-11-19T13:48:20;6.53;;;1.83;;
27402;SDS011;14862;49.494;8.530;2023-11-19T13:50:45;3.80;;;1.52;;
27402;SDS011;14862;49.494;8.530;2023-11-19T13:53:11;5.28;;;1.67;;
27402;SDS011;14862;49.494;8.530;2023-11-19T13:55:36;10.23;;;1.70;;
27402;SDS011;14862;49.494;8.530;2023-11-19T13:58:01;3.57;;;1.63;;
27402;SDS011;14862;49.494;8.530;2023-11-19T14:00:26;3.53;;;1.60;;
27402;SDS011;14862;49.494;8.530;2023-11-19T14:02:52;4.68;;;1.70;;
27402;SDS011;14862;49.494;8.530;2023-11-19T14:05:17;5.88;;;1.40;;
27402;SDS011;14862;49.494;8.530;2023-11-19T14:07:42;8.98;;;2.70;;
27402;SDS011;14862;49.494;8.530;2023-11-19T14:10:08;4.88;;;1.85;;
27402;SDS011;14862;49.494;8.530;2023-11-19T14:12:34;5.93;;;1.58;;
27402;SDS011;14862;49.494;8.530;2023-11-19T14:15:00;2.85;;;1.70;;
27402;SDS011;14862;49.494;8.530;2023-11-19T14:17:25;3.13;;;1.63;;
27402;SDS011;14862;49.494;8.530;2023-11-19T14:19:51;4.15;;;1.52;;
27402;SDS011;14862;49.494;8.530;2023-11-19T14:22:16;5.20;;;1.65;;
27402;SDS011;14862;49.494;8.530;2023-11-19T14:24:41;4.63;;;1.60;;
27402;SDS011;14862;49.494;8.530;2023-11-19T14:27:08;4.40;;;1.52;;
27402;SDS011;14862;49.494;8.530;2023-11-19T14:29:33;3.85;;;2.28;;
27402;SDS011;14862;49.494;8.530;2023-11-19T14:32:00;2.88;;;1.30;;
27402;SDS011;14862;49.494;8.530;2023-11-19T14:34:25;5.75;;;1.58;;
27402;SDS011;14862;49.494;8.530;2023-11-19T14:36:51;3.78;;;1.60;;
27402;SDS011;14862;49.494;8.530;2023-11-19T14:39:16;3.38;;;1.77;;
27402;SDS011;14862;49.494;8.530;2023-11-19T14:41:45;2.72;;;1.20;;
27402;SDS011;14862;49.494;8.530;2023-11-19T14:44:10;5.82;;;1.60;;
27402;SDS011;14862;49.494;8.530;2023-11-19T14:46:35;5.55;;;1.90;;
27402;SDS011;14862;49.494;8.530;2023-11-19T14:49:01;4.18;;;1.75;;
27402;SDS011;14862;49.494;8.530;2023-11-19T14:51:26;6.53;;;1.85;;
27402;SDS011;14862;49.494;8.530;2023-11-19T14:53:52;3.80;;;1.60;;
27402;SDS011;14862;49.494;8.530;2023-11-19T14:56:17;5.60;;;1.73;;
27402;SDS011;14862;49.494;8.530;2023-11-19T14:58:42;6.80;;;2.05;;
27402;SDS011;14862;49.494;8.530;2023-11-19T15:01:12;7.60;;;1.90;;
27402;SDS011;14862;49.494;8.530;2023-11-19T15:03:37;8.30;;;1.50;;
27402;SDS011;14862;49.494;8.530;2023-11-19T15:06:02;5.50;;;1.58;;
27402;SDS011;14862;49.494;8.530;2023-11-19T15:08:28;5.45;;;1.70;;
27402;SDS011;14862;49.494;8.530;2023-11-19T15:10:53;6.88;;;1.70;;
27402;SDS011;14862;49.494;8.530;2023-11-19T15:13:18;6.95;;;1.90;;
27402;SDS011;14862;49.494;8.530;2023-11-19T15:15:43;3.97;;;2.08;;